sensor_id;sensor_type;location;lat;lon;timestamp;pressure;altitude;pressure_sealevel;temperature;humidity
40788;BME280;26497;52.494;7.546;2022-12-08T00:00:08;100260.84;;;6.97;69.25
40788;BME280;26497;52.494;7.546;2022-12-08T00:02:35;100255.72;;;7.11;68.32
40788;BME280;26497;52.494;7.546;2022-12-08T00:05:02;100253.09;;;7.10;68.36
40788;BME280;26497;52.494;7.546;2022-12-08T00:07:47;100249.56;;;7.09;68.28
40788;BME280;26497;52.494;7.546;2022-12-08T00:10:31;100250.28;;;6.89;69.54
40788;BME280;26497;52.494;7.546;2022-12-08T00:13:00;100242.56;;;7.03;69.40
40788;BME280;26497;52.494;7.546;2022-12-08T00:15:27;100237.41;;;7.19;69.43
40788;BME280;26497;52.494;7.546;2022-12-08T00:17:54;100231.47;;;7.51;68.13
40788;BME280;26497;52.494;7.546;2022-12-08T00:20:21;100238.47;;;7.52;67.46
40788;BME280;26497;52.494;7.546;2022-12-08T00:22:48;100232.44;;;7.70;66.96
40788;BME280;26497;52.494;7.546;2022-12-08T00:25:15;100242.84;;;7.56;67.52
40788;BME280;26497;52.494;7.546;2022-12-08T00:27:42;100228.06;;;7.66;67.74
40788;BME280;26497;52.494;7.546;2022-12-08T00:30:11;100227.16;;;7.62;68.13
40788;BME280;26497;52.494;7.546;2022-12-08T00:32:38;100224.41;;;7.39;69.00
40788;BME280;26497;52.494;7.546;2022-12-08T00:35:06;100221.81;;;7.42;67.75
40788;BME280;26497;52.494;7.546;2022-12-08T00:37:33;100212.13;;;7.32;66.98
40788;BME280;26497;52.494;7.546;2022-12-08T00:40:00;100206.06;;;7.42;66.76
40788;BME280;26497;52.494;7.546;2022-12-08T00:42:27;100204.22;;;7.30;66.21
40788;BME280;26497;52.494;7.546;2022-12-08T00:44:54;100212.78;;;7.00;67.34
40788;BME280;26497;52.494;7.546;2022-12-08T00:47:22;100201.53;;;7.12;67.02
40788;BME280;26497;52.494;7.546;2022-12-08T00:49:49;100211.09;;;7.03;66.97
40788;BME280;26497;52.494;7.546;2022-12-08T00:52:16;100208.41;;;6.96;67.35
40788;BME280;26497;52.494;7.546;2022-12-08T00:54:43;100208.41;;;6.97;67.51
40788;BME280;26497;52.494;7.546;2022-12-08T00:57:10;100202.38;;;7.07;67.31
40788;BME280;26497;52.494;7.546;2022-12-08T00:59:37;100201.47;;;7.04;67.06
40788;BME280;26497;52.494;7.546;2022-12-08T01:02:04;100203.16;;;6.99;66.71
40788;BME280;26497;52.494;7.546;2022-12-08T01:04:32;100201.25;;;6.76;68.02
40788;BME280;26497;52.494;7.546;2022-12-08T01:06:59;100189.97;;;6.85;67.89
40788;BME280;26497;52.494;7.546;2022-12-08T01:09:26;100196.94;;;6.79;68.19
40788;BME280;26497;52.494;7.546;2022-12-08T01:11:54;100193.41;;;6.76;67.71
40788;BME280;26497;52.494;7.546;2022-12-08T01:14:21;100186.31;;;6.59;68.68
40788;BME280;26497;52.494;7.546;2022-12-08T01:16:48;100184.72;;;6.82;67.48
40788;BME280;26497;52.494;7.546;2022-12-08T01:19:16;100189.06;;;6.79;67.39
40788;BME280;26497;52.494;7.546;2022-12-08T01:21:45;100189.94;;;6.78;67.20
40788;BME280;26497;52.494;7.546;2022-12-08T01:24:15;100188.13;;;6.71;67.95
40788;BME280;26497;52.494;7.546;2022-12-08T01:26:42;100187.38;;;6.89;66.94
40788;BME280;26497;52.494;7.546;2022-12-08T01:29:16;100188.81;;;6.47;68.78
40788;BME280;26497;52.494;7.546;2022-12-08T01:31:43;100187.03;;;6.43;68.48
40788;BME280;26497;52.494;7.546;2022-12-08T01:34:10;100186.91;;;6.30;69.20
40788;BME280;26497;52.494;7.546;2022-12-08T01:36:38;100179.19;;;6.46;68.22
40788;BME280;26497;52.494;7.546;2022-12-08T01:39:09;100184.28;;;6.32;69.12
40788;BME280;26497;52.494;7.546;2022-12-08T01:41:39;100182.47;;;6.25;69.40
40788;BME280;26497;52.494;7.546;2022-12-08T01:44:56;100187.75;;;6.28;69.66
40788;BME280;26497;52.494;7.546;2022-12-08T01:47:30;100177.38;;;6.40;68.18
40788;BME280;26497;52.494;7.546;2022-12-08T01:49:58;100178.16;;;6.28;68.80
40788;BME280;26497;52.494;7.546;2022-12-08T01:52:31;100174.75;;;6.37;67.98
40788;BME280;26497;52.494;7.546;2022-12-08T01:55:03;100175.44;;;6.17;69.34
40788;BME280;26497;52.494;7.546;2022-12-08T01:57:35;100178.13;;;6.27;68.91
40788;BME280;26497;52.494;7.546;2022-12-08T02:00:06;100181.66;;;6.29;68.54
40788;BME280;26497;52.494;7.546;2022-12-08T02:02:43;100174.88;;;6.53;66.94
40788;BME280;26497;52.494;7.546;2022-12-08T02:05:13;100177.56;;;6.62;65.56
40788;BME280;26497;52.494;7.546;2022-12-08T02:07:40;100163.63;;;6.61;65.58
40788;BME280;26497;52.494;7.546;2022-12-08T02:10:13;100169.44;;;6.29;67.75
40788;BME280;26497;52.494;7.546;2022-12-08T02:12:42;100158.88;;;6.20;68.87
40788;BME280;26497;52.494;7.546;2022-12-08T02:15:10;100155.50;;;6.30;68.47
40788;BME280;26497;52.494;7.546;2022-12-08T02:17:53;100159.75;;;6.20;69.66
40788;BME280;26497;52.494;7.546;2022-12-08T02:20:37;100149.28;;;6.20;70.54
40788;BME280;26497;52.494;7.546;2022-12-08T02:23:14;100146.94;;;6.50;69.32
40788;BME280;26497;52.494;7.546;2022-12-08T02:30:10;100140.03;;;6.68;69.54
40788;BME280;26497;52.494;7.546;2022-12-08T02:33:21;100135.09;;;7.14;68.64
40788;BME280;26497;52.494;7.546;2022-12-08T02:35:57;100129.03;;;7.29;68.03
40788;BME280;26497;52.494;7.546;2022-12-08T02:38:41;100127.34;;;7.44;67.83
40788;BME280;26497;52.494;7.546;2022-12-08T02:41:20;100125.59;;;7.43;67.33
40788;BME280;26497;52.494;7.546;2022-12-08T02:43:59;100124.69;;;7.28;68.59
40788;BME280;26497;52.494;7.546;2022-12-08T02:46:32;100126.41;;;7.29;68.74
40788;BME280;26497;52.494;7.546;2022-12-08T02:49:01;100122.03;;;7.22;68.94
40788;BME280;26497;52.494;7.546;2022-12-08T02:51:31;100120.31;;;7.27;68.64
40788;BME280;26497;52.494;7.546;2022-12-08T02:53:58;100112.41;;;7.26;69.26
40788;BME280;26497;52.494;7.546;2022-12-08T02:56:46;100099.31;;;7.30;68.60
40788;BME280;26497;52.494;7.546;2022-12-08T02:59:48;100105.44;;;7.32;69.50
40788;BME280;26497;52.494;7.546;2022-12-08T03:02:27;100094.09;;;7.32;69.62
40788;BME280;26497;52.494;7.546;2022-12-08T03:05:05;100097.56;;;7.35;69.41
40788;BME280;26497;52.494;7.546;2022-12-08T03:07:41;100091.50;;;7.44;69.29
40788;BME280;26497;52.494;7.546;2022-12-08T03:10:15;100104.63;;;7.47;70.15
40788;BME280;26497;52.494;7.546;2022-12-08T03:12:48;100094.19;;;7.71;69.09
40788;BME280;26497;52.494;7.546;2022-12-08T03:15:19;100084.56;;;7.70;69.13
40788;BME280;26497;52.494;7.546;2022-12-08T03:17:52;100086.25;;;7.49;69.47
40788;BME280;26497;52.494;7.546;2022-12-08T03:20:24;100092.41;;;7.49;69.80
40788;BME280;26497;52.494;7.546;2022-12-08T03:22:57;100085.38;;;7.47;70.26
40788;BME280;26497;52.494;7.546;2022-12-08T03:25:29;100080.09;;;7.41;70.79
40788;BME280;26497;52.494;7.546;2022-12-08T03:27:58;100081.03;;;7.55;70.73
40788;BME280;26497;52.494;7.546;2022-12-08T03:30:28;100076.69;;;7.66;69.74
40788;BME280;26497;52.494;7.546;2022-12-08T03:33:02;100068.81;;;7.62;70.40
40788;BME280;26497;52.494;7.546;2022-12-08T03:35:34;100066.22;;;7.76;69.82
40788;BME280;26497;52.494;7.546;2022-12-08T03:38:05;100059.19;;;7.72;69.67
40788;BME280;26497;52.494;7.546;2022-12-08T03:40:33;100060.09;;;7.83;69.53
40788;BME280;26497;52.494;7.546;2022-12-08T03:43:00;100058.31;;;7.60;69.82
40788;BME280;26497;52.494;7.546;2022-12-08T03:45:27;100055.66;;;7.57;70.65
40788;BME280;26497;52.494;7.546;2022-12-08T03:47:54;100053.13;;;7.90;69.33
40788;BME280;26497;52.494;7.546;2022-12-08T03:50:21;100050.47;;;7.94;68.90
40788;BME280;26497;52.494;7.546;2022-12-08T03:52:48;100046.97;;;7.86;69.62
40788;BME280;26497;52.494;7.546;2022-12-08T03:55:17;100044.34;;;7.77;69.85
40788;BME280;26497;52.494;7.546;2022-12-08T03:57:44;100042.59;;;7.96;69.35
40788;BME280;26497;52.494;7.546;2022-12-08T04:00:14;100037.34;;;8.13;68.78
40788;BME280;26497;52.494;7.546;2022-12-08T04:02:42;100039.09;;;8.25;68.61
40788;BME280;26497;52.494;7.546;2022-12-08T04:08:50;100043.47;;;7.86;69.53
40788;BME280;26497;52.494;7.546;2022-12-08T04:11:19;100040.84;;;8.23;68.99
40788;BME280;26497;52.494;7.546;2022-12-08T04:13:46;100044.34;;;8.45;67.91
40788;BME280;26497;52.494;7.546;2022-12-08T04:16:15;100044.31;;;8.34;68.13
40788;BME280;26497;52.494;7.546;2022-12-08T04:18:44;100039.97;;;8.35;67.97
40788;BME280;26497;52.494;7.546;2022-12-08T04:21:11;100039.09;;;8.26;68.06
40788;BME280;26497;52.494;7.546;2022-12-08T04:23:38;100035.59;;;8.18;68.79
40788;BME280;26497;52.494;7.546;2022-12-08T04:26:05;100033.81;;;8.45;67.99
40788;BME280;26497;52.494;7.546;2022-12-08T04:28:34;100030.31;;;8.20;68.25
40788;BME280;26497;52.494;7.546;2022-12-08T04:31:01;100028.56;;;8.31;68.52
40788;BME280;26497;52.494;7.546;2022-12-08T04:33:28;100021.56;;;8.24;68.66
40788;BME280;26497;52.494;7.546;2022-12-08T04:35:55;100018.06;;;8.03;69.19
40788;BME280;26497;52.494;7.546;2022-12-08T04:38:22;100018.97;;;8.25;68.97
40788;BME280;26497;52.494;7.546;2022-12-08T04:40:49;100013.69;;;8.25;69.22
40788;BME280;26497;52.494;7.546;2022-12-08T04:43:16;100014.56;;;8.37;68.11
40788;BME280;26497;52.494;7.546;2022-12-08T04:45:45;100014.56;;;8.04;69.58
40788;BME280;26497;52.494;7.546;2022-12-08T04:48:12;100016.31;;;8.18;69.13
40788;BME280;26497;52.494;7.546;2022-12-08T04:50:41;100017.22;;;8.12;69.69
40788;BME280;26497;52.494;7.546;2022-12-08T04:53:10;100024.22;;;8.29;69.03
40788;BME280;26497;52.494;7.546;2022-12-08T04:55:39;100013.69;;;8.35;68.67
40788;BME280;26497;52.494;7.546;2022-12-08T04:58:11;100018.06;;;8.22;68.64
40788;BME280;26497;52.494;7.546;2022-12-08T05:00:39;100013.72;;;8.04;69.01
40788;BME280;26497;52.494;7.546;2022-12-08T05:03:08;100014.56;;;8.37;68.51
40788;BME280;26497;52.494;7.546;2022-12-08T05:05:35;100008.44;;;8.25;68.24
40788;BME280;26497;52.494;7.546;2022-12-08T05:08:02;100005.81;;;8.11;69.36
40788;BME280;26497;52.494;7.546;2022-12-08T05:10:30;100014.56;;;8.17;69.29
40788;BME280;26497;52.494;7.546;2022-12-08T05:12:57;100011.94;;;8.27;68.27
40788;BME280;26497;52.494;7.546;2022-12-08T05:15:24;100005.78;;;8.44;68.50
40788;BME280;26497;52.494;7.546;2022-12-08T05:17:51;100011.94;;;8.26;68.74
40788;BME280;26497;52.494;7.546;2022-12-08T05:20:20;100004.03;;;8.45;68.00
40788;BME280;26497;52.494;7.546;2022-12-08T05:22:47;100005.78;;;8.41;67.89
40788;BME280;26497;52.494;7.546;2022-12-08T05:25:14;100006.69;;;8.29;68.69
40788;BME280;26497;52.494;7.546;2022-12-08T05:27:41;100005.81;;;8.35;68.31
40788;BME280;26497;52.494;7.546;2022-12-08T05:30:09;100006.69;;;8.27;69.15
40788;BME280;26497;52.494;7.546;2022-12-08T05:32:36;100005.81;;;8.32;68.75
40788;BME280;26497;52.494;7.546;2022-12-08T05:35:03;99993.50;;;8.45;67.73
40788;BME280;26497;52.494;7.546;2022-12-08T05:37:32;99994.44;;;8.26;68.93
40788;BME280;26497;52.494;7.546;2022-12-08T05:39:59;100000.59;;;8.04;69.19
40788;BME280;26497;52.494;7.546;2022-12-08T05:42:26;100001.47;;;8.09;69.44
40788;BME280;26497;52.494;7.546;2022-12-08T05:44:53;99997.06;;;8.26;69.09
40788;BME280;26497;52.494;7.546;2022-12-08T05:47:20;99990.91;;;8.34;68.60
40788;BME280;26497;52.494;7.546;2022-12-08T05:49:47;99990.03;;;8.35;68.59
40788;BME280;26497;52.494;7.546;2022-12-08T05:52:14;99995.28;;;8.36;68.55
40788;BME280;26497;52.494;7.546;2022-12-08T05:54:43;99997.06;;;8.09;69.39
40788;BME280;26497;52.494;7.546;2022-12-08T05:57:10;99990.03;;;8.27;69.23
40788;BME280;26497;52.494;7.546;2022-12-08T05:59:38;99993.53;;;8.26;68.73
40788;BME280;26497;52.494;7.546;2022-12-08T06:02:05;99992.69;;;8.16;69.33
40788;BME280;26497;52.494;7.546;2022-12-08T06:04:33;99987.41;;;8.35;68.75
40788;BME280;26497;52.494;7.546;2022-12-08T06:07:00;99992.66;;;8.41;68.32
40788;BME280;26497;52.494;7.546;2022-12-08T06:09:27;99990.91;;;8.51;67.90
40788;BME280;26497;52.494;7.546;2022-12-08T06:11:55;99995.28;;;8.50;67.98
40788;BME280;26497;52.494;7.546;2022-12-08T06:14:22;99993.50;;;8.41;67.84
40788;BME280;26497;52.494;7.546;2022-12-08T06:16:49;99986.56;;;8.30;68.80
40788;BME280;26497;52.494;7.546;2022-12-08T06:19:16;99983.88;;;8.58;67.92
40788;BME280;26497;52.494;7.546;2022-12-08T06:21:43;99993.53;;;8.59;67.53
40788;BME280;26497;52.494;7.546;2022-12-08T06:24:10;99987.34;;;8.63;67.45
40788;BME280;26497;52.494;7.546;2022-12-08T06:26:37;99990.91;;;8.49;67.98
40788;BME280;26497;52.494;7.546;2022-12-08T06:29:07;99993.53;;;8.55;67.80
40788;BME280;26497;52.494;7.546;2022-12-08T06:31:34;99991.78;;;8.50;67.47
40788;BME280;26497;52.494;7.546;2022-12-08T06:34:01;99990.91;;;8.46;68.35
40788;BME280;26497;52.494;7.546;2022-12-08T06:36:28;99990.91;;;8.59;67.67
40788;BME280;26497;52.494;7.546;2022-12-08T06:38:55;99993.50;;;8.66;67.45
40788;BME280;26497;52.494;7.546;2022-12-08T06:41:23;99990.88;;;8.57;67.47
40788;BME280;26497;52.494;7.546;2022-12-08T06:43:50;99992.66;;;8.44;67.55
40788;BME280;26497;52.494;7.546;2022-12-08T06:46:19;99997.06;;;8.23;68.42
40788;BME280;26497;52.494;7.546;2022-12-08T06:48:46;99995.31;;;8.21;68.79
40788;BME280;26497;52.494;7.546;2022-12-08T06:51:18;99997.97;;;8.10;68.59
40788;BME280;26497;52.494;7.546;2022-12-08T06:53:46;100002.31;;;8.16;68.84
40788;BME280;26497;52.494;7.546;2022-12-08T06:56:14;100003.19;;;8.19;68.60
40788;BME280;26497;52.494;7.546;2022-12-08T06:58:44;100004.06;;;8.21;68.85
40788;BME280;26497;52.494;7.546;2022-12-08T07:01:12;100011.06;;;8.33;68.55
40788;BME280;26497;52.494;7.546;2022-12-08T07:03:41;100004.94;;;8.23;68.10
40788;BME280;26497;52.494;7.546;2022-12-08T07:06:14;100011.94;;;8.31;68.08
40788;BME280;26497;52.494;7.546;2022-12-08T07:08:42;100022.44;;;8.31;68.34
40788;BME280;26497;52.494;7.546;2022-12-08T07:11:10;100017.19;;;8.37;68.12
40788;BME280;26497;52.494;7.546;2022-12-08T07:13:37;100011.94;;;8.43;68.10
40788;BME280;26497;52.494;7.546;2022-12-08T07:16:06;100024.16;;;8.43;68.13
40788;BME280;26497;52.494;7.546;2022-12-08T07:18:33;100024.19;;;8.44;67.54
40788;BME280;26497;52.494;7.546;2022-12-08T07:21:04;100024.22;;;8.29;68.17
40788;BME280;26497;52.494;7.546;2022-12-08T07:23:32;100029.44;;;8.43;68.04
40788;BME280;26497;52.494;7.546;2022-12-08T07:26:00;100029.44;;;8.47;67.65
40788;BME280;26497;52.494;7.546;2022-12-08T07:28:30;100034.69;;;8.44;67.41
40788;BME280;26497;52.494;7.546;2022-12-08T07:30:57;100030.31;;;8.37;67.83
40788;BME280;26497;52.494;7.546;2022-12-08T07:33:24;100029.44;;;8.33;67.67
40788;BME280;26497;52.494;7.546;2022-12-08T07:35:55;100021.56;;;8.38;67.61
40788;BME280;26497;52.494;7.546;2022-12-08T07:38:24;100028.56;;;8.44;67.23
40788;BME280;26497;52.494;7.546;2022-12-08T07:40:52;100024.19;;;8.32;67.24
40788;BME280;26497;52.494;7.546;2022-12-08T07:43:20;100023.31;;;8.25;67.86
40788;BME280;26497;52.494;7.546;2022-12-08T07:45:47;100028.56;;;8.31;67.70
40788;BME280;26497;52.494;7.546;2022-12-08T07:48:14;100024.19;;;8.30;67.66
40788;BME280;26497;52.494;7.546;2022-12-08T07:50:42;100022.44;;;8.31;67.55
40788;BME280;26497;52.494;7.546;2022-12-08T07:53:09;100026.81;;;8.44;67.21
40788;BME280;26497;52.494;7.546;2022-12-08T07:55:40;100029.44;;;8.41;67.33
40788;BME280;26497;52.494;7.546;2022-12-08T07:58:08;100026.81;;;8.38;67.36
40788;BME280;26497;52.494;7.546;2022-12-08T08:00:35;100026.81;;;8.53;67.22
40788;BME280;26497;52.494;7.546;2022-12-08T08:03:03;100029.41;;;8.63;67.06
40788;BME280;26497;52.494;7.546;2022-12-08T08:05:30;100032.91;;;8.66;66.65
40788;BME280;26497;52.494;7.546;2022-12-08T08:07:57;100027.63;;;8.68;67.00
40788;BME280;26497;52.494;7.546;2022-12-08T08:10:24;100028.50;;;8.76;66.69
40788;BME280;26497;52.494;7.546;2022-12-08T08:12:53;100028.50;;;8.81;66.51
40788;BME280;26497;52.494;7.546;2022-12-08T08:15:20;100028.47;;;8.82;66.67
40788;BME280;26497;52.494;7.546;2022-12-08T08:17:50;100034.63;;;8.83;66.53
40788;BME280;26497;52.494;7.546;2022-12-08T08:20:18;100038.13;;;8.83;66.17
40788;BME280;26497;52.494;7.546;2022-12-08T08:22:46;100031.13;;;8.78;66.84
40788;BME280;26497;52.494;7.546;2022-12-08T08:25:14;100030.22;;;8.91;66.52
40788;BME280;26497;52.494;7.546;2022-12-08T08:27:41;100037.22;;;8.95;66.40
40788;BME280;26497;52.494;7.546;2022-12-08T08:30:12;100031.94;;;8.91;66.45
40788;BME280;26497;52.494;7.546;2022-12-08T08:32:40;100031.94;;;8.97;66.63
40788;BME280;26497;52.494;7.546;2022-12-08T08:35:08;100028.44;;;8.96;66.67
40788;BME280;26497;52.494;7.546;2022-12-08T08:37:35;100028.50;;;8.81;67.14
40788;BME280;26497;52.494;7.546;2022-12-08T08:40:02;100027.69;;;8.60;67.93
40788;BME280;26497;52.494;7.546;2022-12-08T08:42:29;100043.38;;;8.87;67.40
40788;BME280;26497;52.494;7.546;2022-12-08T08:44:56;100037.19;;;9.05;67.06
40788;BME280;26497;52.494;7.546;2022-12-08T08:47:25;100044.16;;;9.12;67.09
40788;BME280;26497;52.494;7.546;2022-12-08T08:49:52;100050.25;;;9.19;66.49
40788;BME280;26497;52.494;7.546;2022-12-08T08:52:19;100051.16;;;9.11;66.75
40788;BME280;26497;52.494;7.546;2022-12-08T08:54:46;100051.19;;;9.13;66.94
40788;BME280;26497;52.494;7.546;2022-12-08T08:57:13;100049.41;;;9.13;66.94
40788;BME280;26497;52.494;7.546;2022-12-08T08:59:40;100056.59;;;8.59;67.55
40788;BME280;26497;52.494;7.546;2022-12-08T09:02:12;100053.03;;;8.83;67.88
40788;BME280;26497;52.494;7.546;2022-12-08T09:04:42;100049.50;;;8.89;67.54
40788;BME280;26497;52.494;7.546;2022-12-08T09:07:09;100052.03;;;9.13;67.17
40788;BME280;26497;52.494;7.546;2022-12-08T09:09:37;100049.41;;;9.10;66.92
40788;BME280;26497;52.494;7.546;2022-12-08T09:12:05;100048.50;;;9.25;66.50
40788;BME280;26497;52.494;7.546;2022-12-08T09:14:32;100048.44;;;9.32;65.96
40788;BME280;26497;52.494;7.546;2022-12-08T09:16:59;100054.63;;;9.27;66.30
40788;BME280;26497;52.494;7.546;2022-12-08T09:19:26;100052.00;;;9.20;65.75
40788;BME280;26497;52.494;7.546;2022-12-08T09:21:54;100053.88;;;8.91;67.06
40788;BME280;26497;52.494;7.546;2022-12-08T09:24:21;100059.13;;;8.96;66.30
40788;BME280;26497;52.494;7.546;2022-12-08T09:26:48;100056.44;;;9.13;66.59
40788;BME280;26497;52.494;7.546;2022-12-08T09:29:15;100052.88;;;9.19;66.66
40788;BME280;26497;52.494;7.546;2022-12-08T09:31:43;100056.38;;;9.24;66.05
40788;BME280;26497;52.494;7.546;2022-12-08T09:34:10;100057.25;;;9.23;66.88
40788;BME280;26497;52.494;7.546;2022-12-08T09:36:37;100050.16;;;9.36;66.79
40788;BME280;26497;52.494;7.546;2022-12-08T09:39:06;100048.41;;;9.39;66.49
40788;BME280;26497;52.494;7.546;2022-12-08T09:41:35;100043.03;;;9.58;66.30
40788;BME280;26497;52.494;7.546;2022-12-08T09:44:21;100043.13;;;9.41;66.30
40788;BME280;26497;52.494;7.546;2022-12-08T09:46:57;100044.03;;;9.35;66.69
40788;BME280;26497;52.494;7.546;2022-12-08T09:49:38;100045.81;;;9.33;66.95
40788;BME280;26497;52.494;7.546;2022-12-08T09:52:12;100039.59;;;9.50;66.71
40788;BME280;26497;52.494;7.546;2022-12-08T09:54:45;100043.28;;;9.08;66.84
40788;BME280;26497;52.494;7.546;2022-12-08T09:57:17;100036.16;;;9.32;67.30
40788;BME280;26497;52.494;7.546;2022-12-08T09:59:50;100043.03;;;9.58;66.81
40788;BME280;26497;52.494;7.546;2022-12-08T10:02:22;100044.63;;;9.84;66.09
40788;BME280;26497;52.494;7.546;2022-12-08T10:04:50;100041.28;;;9.57;65.56
40788;BME280;26497;52.494;7.546;2022-12-08T10:07:26;100043.16;;;9.39;66.51
40788;BME280;26497;52.494;7.546;2022-12-08T10:10:04;100041.31;;;9.54;66.77
40788;BME280;26497;52.494;7.546;2022-12-08T10:12:38;100036.81;;;9.70;66.96
40788;BME280;26497;52.494;7.546;2022-12-08T10:15:29;100035.81;;;9.88;66.56
40788;BME280;26497;52.494;7.546;2022-12-08T10:18:02;100029.66;;;9.92;66.18
40788;BME280;26497;52.494;7.546;2022-12-08T10:20:36;100025.19;;;9.99;65.98
40788;BME280;26497;52.494;7.546;2022-12-08T10:23:12;100027.06;;;9.83;65.99
40788;BME280;26497;52.494;7.546;2022-12-08T10:25:46;100020.16;;;9.66;65.71
40788;BME280;26497;52.494;7.546;2022-12-08T10:28:13;100021.22;;;9.33;66.67
40788;BME280;26497;52.494;7.546;2022-12-08T10:30:40;100016.09;;;9.12;67.28
40788;BME280;26497;52.494;7.546;2022-12-08T10:33:12;100020.91;;;9.82;66.67
40788;BME280;26497;52.494;7.546;2022-12-08T10:35:46;100014.13;;;9.52;65.70
40788;BME280;26497;52.494;7.546;2022-12-08T10:38:25;100022.66;;;9.85;65.83
40788;BME280;26497;52.494;7.546;2022-12-08T10:40:59;100021.75;;;9.89;65.24
40788;BME280;26497;52.494;7.546;2022-12-08T10:43:29;100018.13;;;9.99;65.01
40788;BME280;26497;52.494;7.546;2022-12-08T10:46:08;100022.53;;;9.97;64.56
40788;BME280;26497;52.494;7.546;2022-12-08T10:48:36;100022.84;;;9.58;64.70
40788;BME280;26497;52.494;7.546;2022-12-08T10:51:03;100013.25;;;9.53;64.61
40788;BME280;26497;52.494;7.546;2022-12-08T10:53:32;100011.41;;;9.64;65.60
40788;BME280;26497;52.494;7.546;2022-12-08T10:56:14;100010.28;;;9.95;64.82
40788;BME280;26497;52.494;7.546;2022-12-08T10:58:44;100009.28;;;10.11;64.37
40788;BME280;26497;52.494;7.546;2022-12-08T11:01:13;99999.13;;;9.62;63.74
40788;BME280;26497;52.494;7.546;2022-12-08T11:03:46;99994.88;;;9.42;64.57
40788;BME280;26497;52.494;7.546;2022-12-08T11:06:17;100001.91;;;9.41;65.23
40788;BME280;26497;52.494;7.546;2022-12-08T11:08:49;99998.13;;;9.78;64.38
40788;BME280;26497;52.494;7.546;2022-12-08T11:11:19;100000.72;;;9.86;63.89
40788;BME280;26497;52.494;7.546;2022-12-08T11:13:49;100002.47;;;9.85;63.21
40788;BME280;26497;52.494;7.546;2022-12-08T11:16:17;100013.16;;;9.65;63.02
40788;BME280;26497;52.494;7.546;2022-12-08T11:18:54;100011.44;;;9.58;63.14
40788;BME280;26497;52.494;7.546;2022-12-08T11:21:34;100008.91;;;9.46;63.52
40788;BME280;26497;52.494;7.546;2022-12-08T11:24:21;100004.69;;;9.13;64.05
40788;BME280;26497;52.494;7.546;2022-12-08T11:26:55;100001.25;;;8.93;65.27
40788;BME280;26497;52.494;7.546;2022-12-08T11:29:25;100000.22;;;9.28;64.40
40788;BME280;26497;52.494;7.546;2022-12-08T11:31:58;100001.81;;;9.54;64.06
40788;BME280;26497;52.494;7.546;2022-12-08T11:34:33;100004.38;;;9.65;63.80
40788;BME280;26497;52.494;7.546;2022-12-08T11:37:04;99996.53;;;9.60;63.76
40788;BME280;26497;52.494;7.546;2022-12-08T11:39:34;99995.59;;;9.63;62.97
40788;BME280;26497;52.494;7.546;2022-12-08T11:42:05;99995.78;;;9.36;64.45
40788;BME280;26497;52.494;7.546;2022-12-08T11:44:38;100003.56;;;9.53;63.50
40788;BME280;26497;52.494;7.546;2022-12-08T11:47:14;99992.00;;;9.78;63.01
40788;BME280;26497;52.494;7.546;2022-12-08T11:49:46;99999.66;;;10.02;62.15
40788;BME280;26497;52.494;7.546;2022-12-08T11:52:21;99999.69;;;10.04;62.22
40788;BME280;26497;52.494;7.546;2022-12-08T11:54:56;99996.97;;;10.12;62.10
40788;BME280;26497;52.494;7.546;2022-12-08T11:57:27;99990.06;;;9.98;62.59
40788;BME280;26497;52.494;7.546;2022-12-08T11:59:57;99996.22;;;9.97;61.63
40788;BME280;26497;52.494;7.546;2022-12-08T12:02:27;99997.38;;;9.62;62.90
40788;BME280;26497;52.494;7.546;2022-12-08T12:04:59;99997.25;;;9.81;61.65
40788;BME280;26497;52.494;7.546;2022-12-08T12:07:51;99993.50;;;10.07;61.96
40788;BME280;26497;52.494;7.546;2022-12-08T12:10:45;99996.72;;;10.37;60.97
40788;BME280;26497;52.494;7.546;2022-12-08T12:13:50;99997.81;;;10.14;61.20
40788;BME280;26497;52.494;7.546;2022-12-08T12:16:45;100000.44;;;10.17;60.33
40788;BME280;26497;52.494;7.546;2022-12-08T12:19:16;100000.41;;;10.20;60.63
40788;BME280;26497;52.494;7.546;2022-12-08T12:21:48;99999.38;;;10.33;60.46
40788;BME280;26497;52.494;7.546;2022-12-08T12:24:19;100003.03;;;10.20;59.97
40788;BME280;26497;52.494;7.546;2022-12-08T12:26:56;99996.78;;;10.30;60.06
40788;BME280;26497;52.494;7.546;2022-12-08T12:29:28;100002.13;;;10.26;59.81
40788;BME280;26497;52.494;7.546;2022-12-08T12:31:59;99999.66;;;10.02;60.16
40788;BME280;26497;52.494;7.546;2022-12-08T12:34:30;100003.00;;;10.25;60.25
40788;BME280;26497;52.494;7.546;2022-12-08T12:37:05;99995.94;;;10.28;59.79
40788;BME280;26497;52.494;7.546;2022-12-08T12:39:54;99997.66;;;10.29;59.91
40788;BME280;26497;52.494;7.546;2022-12-08T12:42:38;100002.13;;;10.24;59.34
40788;BME280;26497;52.494;7.546;2022-12-08T12:45:26;99987.34;;;10.08;59.61
40788;BME280;26497;52.494;7.546;2022-12-08T12:48:23;99988.31;;;9.94;59.78
40788;BME280;26497;52.494;7.546;2022-12-08T12:50:52;99984.88;;;9.92;59.87
40788;BME280;26497;52.494;7.546;2022-12-08T12:53:46;99984.91;;;9.86;59.63
40788;BME280;26497;52.494;7.546;2022-12-08T12:56:52;99983.88;;;10.02;59.79
40788;BME280;26497;52.494;7.546;2022-12-08T12:59:44;99983.81;;;10.09;59.28
40788;BME280;26497;52.494;7.546;2022-12-08T13:02:25;99974.00;;;10.25;58.78
40788;BME280;26497;52.494;7.546;2022-12-08T13:05:07;99982.75;;;10.28;59.16
40788;BME280;26497;52.494;7.546;2022-12-08T13:07:43;99982.97;;;10.03;59.20
40788;BME280;26497;52.494;7.546;2022-12-08T13:10:18;99979.34;;;10.17;58.98
40788;BME280;26497;52.494;7.546;2022-12-08T13:15:49;99973.34;;;10.02;59.42
40788;BME280;26497;52.494;7.546;2022-12-08T13:18:22;99972.59;;;9.88;59.31
40788;BME280;26497;52.494;7.546;2022-12-08T13:20:53;99970.03;;;9.77;59.62
40788;BME280;26497;52.494;7.546;2022-12-08T13:23:28;99971.88;;;9.69;59.56
40788;BME280;26497;52.494;7.546;2022-12-08T13:26:15;99974.59;;;9.53;59.12
40788;BME280;26497;52.494;7.546;2022-12-08T13:29:13;99971.31;;;9.22;59.96
40788;BME280;26497;52.494;7.546;2022-12-08T13:31:43;99968.84;;;8.92;60.61
40788;BME280;26497;52.494;7.546;2022-12-08T13:34:17;99977.66;;;8.80;61.02